Historyczne dane pomiarowe

Dodano dane terminowe – wersja testowa.

Dane z okresu 1951-2019

Wersja bazy: 1.34 [2019-03-16, lista zmian], aktualizacja planowana na 2019-04-15

Dane meteo z obszaru Polski uzyskane na podstawie danych udostępnionych przez Instytut Meteorologii i Gospodarki Wodnej – Państwowy Instytut Badawczy.

 

Wybierz Datę:    

       

TemperaturaWilgotnośćWiatrCiśnienieOpadyŚniegCzas trwania zjawisk
 Stacja t tx tn tng RH VA  wxwx mslp ppp RRR   cm mm wxwxwxwxwxwxwx
1994-08-14 15.3 21.1 11.3 9.5 72.3- 6.7 2.3---- 0.0------------
1994-08-13 16.8 24.1 14.3 12.0 92.5- 6.0 2.7---- 4.9------------
1994-08-12 17.9 24.1 15.4 12.5 88.3- 3.7 1.3---- 0.3------------
1994-08-11 20.4 25.1 16.9 15.6 76.5- 5.0 1.0---- 13.0------------
1994-08-10 19.1 27.1 15.4 12.5 76.0- 2.3 0.0---- 0.0------------
1994-08-09 21.9 28.1 17.4 14.6 81.5- 4.7 1.3---- 6.7------------
1994-08-08 22.6 29.6 19.0 16.6 81.3- 8.0 2.3---- 6.0------------
1994-08-07 23.3 27.1 17.9 15.6 63.0- 1.0 0.0---- 2.5------------
1994-08-06 23.2 30.6 16.9 14.6 45.5- 4.0 0.0---- 0.0------------
1994-08-05 19.6 25.1 14.9 13.5 63.8- 1.3 0.0---- 0.0------------
1994-08-04 19.3 23.1 15.9 14.1 88.3- 1.0 0.0---- 0.6------------
1994-08-03 20.2 27.1 16.4 13.5 70.0- 4.0 0.0---- 3.1------------
1994-08-02 25.1 33.1 20.0 17.7 52.5- 1.3 0.0---- 0.0------------
1994-08-01 24.4 32.1 20.0 17.7 54.8- 1.7 0.0---- 0.0------------
1994-07-31 24.9 31.6 22.0 19.2 48.5- 3.3 0.0---- 0.0------------
1994-07-30 24.5 31.1 21.5 18.7 45.5- 1.3 0.0---- 0.0------------
1994-07-29 23.1 31.1 19.5 16.6 41.5- 1.0 0.0---- 0.0------------
1994-07-28 23.9 31.1 20.0 17.1 38.8- 2.3 0.7---- 0.0------------
1994-07-27 23.3 30.6 19.5 16.6 48.3- 1.0 0.0---- 0.0------------
1994-07-26 23.3 29.1 19.0 16.6 41.5- 1.0 2.0---- 0.0------------
1994-07-25 22.4 28.1 19.0 16.6 52.0- 1.0 0.0---- 0.0------------
1994-07-24 23.1 28.1 15.9 13.5 53.0- 1.0 0.0---- 0.0------------
1994-07-23 20.6 27.1 15.4 12.0 61.0- 1.0 0.0---- 0.0------------
1994-07-22 19.8 24.6 14.9 12.5 48.8- 1.3 0.0---- 0.0------------
1994-07-21 19.2 25.1 13.3 10.5 55.8- 1.0 0.0---- 0.0------------
1994-07-20 18.0 24.6 12.8 10.5 58.5- 4.0 1.0---- 0.0------------
1994-07-19 20.2 27.6 14.3 11.5 76.5- 6.0 0.7---- 0.0------------
1994-07-18 20.1 28.1 15.9 13.5 95.3- 6.0 0.0---- 0.9------------
1994-07-17 22.1 27.6 20.0 17.7 87.0- 3.7 3.3---- 2.7------------
1994-07-16 22.8 28.1 20.0 17.7 66.0- 0.7 2.0---- 0.0------------
1994-07-15 22.3 27.1 16.9 14.6 74.8- 3.7 0.0---- 0.0------------
1994-07-14 23.2 30.6 16.4 13.5 70.8- 3.7 0.0---- 0.0------------
1994-07-13 21.3 26.6 16.9 14.6 62.3- 1.0 0.0---- 0.0------------
1994-07-12 18.4 23.1 14.9 12.5 70.0- 3.7 0.0---- 0.0------------
1994-07-11 16.4 20.6 11.8 9.5 97.5- 6.7 2.0---- 0.4------------
1994-07-10 15.8 19.2 10.8 9.0 87.8- 5.3 1.3---- 0.7------------
1994-07-09 14.1 18.2 12.8 10.5 80.8- 6.7 0.0---- 9.9------------
1994-07-08 17.1 20.1 12.3 9.5 71.0- 6.0 2.0---- 0.0------------
1994-07-07 20.9 28.1 15.9 14.1 58.5- 3.3 0.3---- 1.4------------
1994-07-06 18.6 27.1 12.3 9.5 67.3- 2.3 1.7---- 0.0------------
1994-07-05 20.1 25.1 16.9 14.1 65.8- 4.0 0.0---- 0.0------------
1994-07-04 19.4 26.6 14.3 11.5 56.5- 1.0 0.0---- 0.0------------
1994-07-03 17.9 25.1 12.8 11.0 55.5- 1.7 0.7---- 0.0------------
1994-07-02 17.3 22.1 11.3 9.0 63.5- 2.7 1.0---- 0.0------------
1994-07-01 18.6 25.6 11.8 9.5 69.3- 1.0 1.3---- 0.0------------
1994-06-30 22.6 26.6 20.0 17.1 89.5- 3.7 1.0---- 0.0------------
1994-06-29 23.3 32.1 16.9 16.6 70.3- 1.0 0.3---- 0.0------------
1994-06-28 22.5 29.6 13.3 11.5 74.8- 1.3 0.0---- 0.0------------
1994-06-27 21.8 25.1 12.8 11.0 74.0- 5.3 3.3---- 0.0------------
1994-06-26 19.4 26.6 10.3 8.6 51.8- 1.0 3.3---- 0.0------------
1994-06-25 15.9 20.6 8.3 6.7 60.0- 1.0 0.0---- 0.0------------
1994-06-24 15.2 25.5 8.8 7.1 55.3- 1.0 3.0---- 0.0------------
1994-06-23 20.6 29.1 12.3 10.5 62.3- 4.3 0.0---- 0.0------------
1994-06-22 16.9 24.6 9.3 7.6 61.3- 2.3 2.3---- 0.0------------
1994-06-21 13.3 18.8 9.3 7.6 68.5- 1.0 1.0---- 0.0------------
1994-06-20 18.2 21.1 14.9 13.0 77.0- 1.3 3.0---- 0.0------------
1994-06-19 15.7 21.6 10.8 9.5 88.0- 4.7 3.3---- 0.0------------
1994-06-18 11.6 17.7 5.4 3.8 67.3- 3.7 1.0---- 5.4------------
1994-06-17 12.3 16.2 7.8 6.2 73.0- 7.0 0.3---- 0.0------------
1994-06-16 13.8 19.2 9.8 8.1 75.0- 3.0 0.3---- 1.9------------
311.4 ms

 

Źródłem pochodzenia danych jest Instytut Meteorologii i Gospodarki Wodnej – Państwowy Instytut Badawczy. Dane Instytutu Meteorologii i Gospodarki Wodnej – Państwowego Instytutu Badawczego zostały przetworzone.

Dane źródłowe można odnaleźć na stronie https://dane.imgw.pl